Nearby METAR Reports

 

KSJC - San Jose, California, USA
Distance from station: NE 9mi, 14km
Updated: Sat, 13-Apr-2024 3:53am EDT
Mostly cloudy
Mostly cloudy
 Wind from SSE
Wind: SSE 12 mph , 19 km/h
Temperature: 59°F , 15°C
Dew Point: 45°F , 7°C
Humidity: 59%
Barometer: 29.81 inHg , 1009.5 hPa
Clouds: Mostly cloudy
Visibility: 10 miles , 16 km
Cloud details: Mostly cloudy 4400 ft
Mostly cloudy 5500 ft
2024/04/13 07:53 KSJC 130753Z AUTO 15010KT 10SM BKN044 BKN055 15/07 A2981 RMK AO2 SLP095 T01500072 402000122
KNUQ - Moffett Nas/Mtn, California, USA
Distance from station: N 9mi, 14km
Updated: Sat, 13-Apr-2024 4:15am EDT
Mostly cloudy
Mostly cloudy
 Wind from S
Wind: S 15 mph , 24 km/h
Temperature: 57°F , 14°C
Dew Point: 45°F , 7°C
Humidity: 63%
Barometer: 29.81 inHg , 1009.5 hPa
Clouds: Mostly cloudy
Visibility: 10 miles , 16 km
Cloud details: Mostly cloudy 3300 ft
Mostly cloudy 5500 ft
2024/04/13 08:15 KNUQ 130815Z AUTO 17013KT 10SM BKN033 BKN055 14/07 A2981 RMK AO2
 
KPAO - Palo Alto, California, USA
Distance from station: NNW 14mi, 23km
Updated: Fri, 12-Apr-2024 11:47pm EDT
NOT Current
Mostly cloudy
Mostly cloudy
 Wind from S
Wind: S 13 mph , 20 km/h
Temperature: 57°F , 14°C
Dew Point: 43°F , 6°C
Humidity: 59%
Barometer: 29.80 inHg , 1009.1 hPa
Clouds: Mostly cloudy
Visibility: 10 miles , 16 km
Cloud details: Mostly cloudy 5500 ft
2024/04/13 03:47 KPAO 130347Z 19011KT 10SM BKN055 14/06 A2980 RMK LAST
KRHV - San Jose/Reid, California, USA
Distance from station: ENE 12mi, 19km
Updated: Sat, 13-Apr-2024 12:55am EDT
NOT Current
Mostly cloudy
Mostly cloudy
 Wind from S
Wind: S 12 mph , 19 km/h
Temperature: 55°F , 13°C
Dew Point: 46°F , 8°C
Humidity: 72%
Barometer: 29.84 inHg , 1010.5 hPa
Clouds: Mostly cloudy
Visibility: 10 miles , 16 km
Cloud details: Mostly cloudy 4000 ft
2024/04/13 04:55 KRHV 130455Z 18010KT 10SM BKN040 13/08 A2984 RMK LAST
 
KOAK - Oakland, California, USA
Distance from station: NNW 31mi, 50km
Updated: Sat, 13-Apr-2024 3:53am EDT
Mostly cloudy
Mostly cloudy
 Wind from S
Wind: S 20 mph , 31 km/h
Temperature: 57°F , 14°C
Dew Point: 46°F , 8°C
Humidity: 67%
Barometer: 29.81 inHg , 1009.5 hPa
Clouds: Mostly cloudy
Visibility: 10 miles , 16 km
Cloud details: Partly cloudy 2000 ft
Mostly cloudy 5000 ft
2024/04/13 07:53 KOAK 130753Z 18017KT 10SM SCT020 BKN050 14/08 A2981 RMK AO2 SLP096 T01440083 401670100
KSQL - San Carlos Airpo, California, USA
Distance from station: NW 21mi, 34km
Updated: Sat, 13-Apr-2024 4:35am EDT
Overcast
Overcast
 Wind from S
Wind: S 13 mph , 20 km/h
Temperature: 55°F , 13°C
Dew Point: 48°F , 9°C
Humidity: 77%
Barometer: 29.81 inHg , 1009.5 hPa
Clouds: Overcast
Visibility: 7 miles , 11 km
Cloud details: Partly cloudy 3000 ft
Mostly cloudy 3700 ft
Overcast 5000 ft
2024/04/13 08:35 KSQL 130835Z AUTO 17011KT 7SM SCT030 BKN037 OVC050 13/09 A2981 RMK AO2
 
KSFO - San Francisco, California, USA
Distance from station: NW 30mi, 49km
Updated: Sat, 13-Apr-2024 3:56am EDT
Light rain, Overcast
Light rain, Overcast
 Wind from SSE
Wind: SSE 14 mph , 22 km/h
Temperature: 55°F , 13°C
Dew Point: 48°F , 9°C
Humidity: 77%
Barometer: 29.80 inHg , 1009.1 hPa
Summary: Light rain
Clouds: Overcast
Visibility: 10 miles , 16 km
Cloud details: Partly cloudy 2700 ft
Mostly cloudy 3500 ft
Overcast 4200 ft
2024/04/13 07:56 KSFO 130756Z 16012KT 10SM -RA SCT027 BKN035 OVC042 13/09 A2980 RMK AO2 PK WND 17026/0713 RAB24 SLP092 P0000 T01280094 401610106
KE16 - San Martin, California, USA
Distance from station: ESE 27mi, 43km
Updated: Sat, 13-Apr-2024 4:15am EDT
Overcast
Overcast
 Wind from calm
Wind: Calm
Temperature: 54°F , 12°C
Dew Point: 48°F , 9°C
Humidity: 82%
Barometer: 29.85 inHg , 1010.8 hPa
Clouds: Overcast
Visibility: 10 miles , 16 km
Cloud details: Partly cloudy 3800 ft
Overcast 4700 ft
2024/04/13 08:15 KE16 130815Z AUTO 00000KT 10SM SCT038 OVC047 12/09 A2985 RMK AO2
 
KWVI - Watsonville, California, USA
Distance from station: SSE 27mi, 44km
Updated: Sat, 13-Apr-2024 3:53am EDT
Mostly cloudy
Mostly cloudy
 Wind from N
Wind: N 3 mph , 6 km/h
Temperature: 54°F , 12°C
Dew Point: 48°F , 9°C
Humidity: 82%
Barometer: 29.84 inHg , 1010.5 hPa
Clouds: Mostly cloudy
Visibility: 10 miles , 16 km
Cloud details: Partly cloudy 5500 ft
Mostly cloudy 11000 ft
2024/04/13 07:53 KWVI 130753Z AUTO 36003KT 10SM SCT055 BKN110 12/09 A2984 RMK AO2 SLP104 T01170089 401440089
KHAF - Half Moon Bay, California, USA
Distance from station: WNW 31mi, 50km
Updated: Sat, 13-Apr-2024 4:35am EDT
Mist, Overcast
Mist, Overcast
 Wind from S
Wind: S 23 mph , 37 km/h
Temperature: 54°F , 12°C
Dew Point: 52°F , 11°C
Humidity: 94%
Barometer: 29.79 inHg , 1008.8 hPa
Summary: Mist
Clouds: Overcast
Visibility: 6 miles , 10 km
Cloud details: Few Clouds 1300 ft
Mostly cloudy 2400 ft
Overcast 3400 ft
2024/04/13 08:35 KHAF 130835Z AUTO 18020KT 6SM BR FEW013 BKN024 OVC034 12/11 A2979 RMK AO2
 
KHWD - Hayward, California, USA
Distance from station: N 28mi, 44km
Updated: Sat, 13-Apr-2024 3:54am EDT
Mostly cloudy
Mostly cloudy
 Wind from SSE
Wind: SSE 14 mph , 22 km/h, Gust: 23 mph , 37 km/h
Temperature: 59°F , 15°C
Dew Point: 46°F , 8°C
Humidity: 63%
Barometer: 29.80 inHg , 1009.1 hPa
Clouds: Mostly cloudy
Visibility: 10 miles , 16 km
Cloud details: Few Clouds 4300 ft
Mostly cloudy 5000 ft
2024/04/13 07:54 KHWD 130754Z AUTO 16012G20KT 10SM FEW043 BKN050 15/08 A2980 RMK AO2 SLP102 T01500078 401830106
KLVK - Livermore, California, USA
Distance from station: NNE 31mi, 51km
Updated: Sat, 13-Apr-2024 3:53am EDT
Overcast
Overcast
 Wind from S
Wind: S 13 mph , 20 km/h
Temperature: 55°F , 13°C
Dew Point: 45°F , 7°C
Humidity: 67%
Barometer: 29.81 inHg , 1009.5 hPa
Clouds: Overcast
Visibility: 10 miles , 16 km
Cloud details: Partly cloudy 4600 ft
Overcast 11000 ft
2024/04/13 07:53 KLVK 130753Z AUTO 19011KT 10SM SCT046 OVC110 13/07 A2981 RMK AO2 SLP091 T01330072 401780094